sensor_id;sensor_type;location;lat;lon;timestamp;P1;durP1;ratioP1;P2;durP2;ratioP2
21721;SDS011;11023;48.274;7.794;2023-04-24T00:00:36;1.90;;;0.80;;
21721;SDS011;11023;48.274;7.794;2023-04-24T00:03:05;1.83;;;0.70;;
21721;SDS011;11023;48.274;7.794;2023-04-24T00:05:32;4.13;;;0.80;;
21721;SDS011;11023;48.274;7.794;2023-04-24T00:07:58;0.60;;;0.60;;
21721;SDS011;11023;48.274;7.794;2023-04-24T00:10:25;1.50;;;0.70;;
21721;SDS011;11023;48.274;7.794;2023-04-24T00:12:51;1.00;;;0.60;;
21721;SDS011;11023;48.274;7.794;2023-04-24T00:15:16;2.00;;;0.75;;
21721;SDS011;11023;48.274;7.794;2023-04-24T00:17:42;2.15;;;0.60;;
21721;SDS011;11023;48.274;7.794;2023-04-24T00:20:09;1.35;;;0.77;;
21721;SDS011;11023;48.274;7.794;2023-04-24T00:22:35;2.17;;;0.70;;
21721;SDS011;11023;48.274;7.794;2023-04-24T00:25:01;1.20;;;0.70;;
21721;SDS011;11023;48.274;7.794;2023-04-24T00:27:28;2.58;;;0.75;;
21721;SDS011;11023;48.274;7.794;2023-04-24T00:29:54;2.30;;;0.60;;
21721;SDS011;11023;48.274;7.794;2023-04-24T00:32:19;3.05;;;0.60;;
21721;SDS011;11023;48.274;7.794;2023-04-24T00:34:45;2.17;;;0.68;;
21721;SDS011;11023;48.274;7.794;2023-04-24T00:37:11;1.65;;;0.93;;
21721;SDS011;11023;48.274;7.794;2023-04-24T00:39:37;1.73;;;0.70;;
21721;SDS011;11023;48.274;7.794;2023-04-24T00:42:02;1.40;;;0.60;;
21721;SDS011;11023;48.274;7.794;2023-04-24T00:44:30;3.72;;;0.73;;
21721;SDS011;11023;48.274;7.794;2023-04-24T00:46:57;1.80;;;1.17;;
21721;SDS011;11023;48.274;7.794;2023-04-24T00:49:24;4.05;;;0.60;;
21721;SDS011;11023;48.274;7.794;2023-04-24T00:51:50;4.43;;;0.80;;
21721;SDS011;11023;48.274;7.794;2023-04-24T00:54:16;2.05;;;0.88;;
21721;SDS011;11023;48.274;7.794;2023-04-24T00:56:43;1.30;;;0.70;;
21721;SDS011;11023;48.274;7.794;2023-04-24T00:59:10;3.03;;;0.90;;
21721;SDS011;11023;48.274;7.794;2023-04-24T01:01:36;1.65;;;0.80;;
21721;SDS011;11023;48.274;7.794;2023-04-24T01:04:07;1.52;;;0.70;;
21721;SDS011;11023;48.274;7.794;2023-04-24T01:06:35;2.38;;;0.60;;
21721;SDS011;11023;48.274;7.794;2023-04-24T01:09:05;1.73;;;0.70;;
21721;SDS011;11023;48.274;7.794;2023-04-24T01:11:36;2.08;;;0.60;;
21721;SDS011;11023;48.274;7.794;2023-04-24T01:14:02;3.13;;;0.80;;
21721;SDS011;11023;48.274;7.794;2023-04-24T01:16:29;1.90;;;0.60;;
21721;SDS011;11023;48.274;7.794;2023-04-24T01:18:54;1.35;;;0.68;;
21721;SDS011;11023;48.274;7.794;2023-04-24T01:21:20;2.50;;;0.90;;
21721;SDS011;11023;48.274;7.794;2023-04-24T01:23:47;1.75;;;0.60;;
21721;SDS011;11023;48.274;7.794;2023-04-24T01:26:15;1.73;;;0.85;;
21721;SDS011;11023;48.274;7.794;2023-04-24T01:28:42;1.00;;;0.60;;
21721;SDS011;11023;48.274;7.794;2023-04-24T01:31:08;2.45;;;0.70;;
21721;SDS011;11023;48.274;7.794;2023-04-24T01:33:34;2.05;;;0.65;;
21721;SDS011;11023;48.274;7.794;2023-04-24T01:36:00;1.05;;;0.70;;
21721;SDS011;11023;48.274;7.794;2023-04-24T01:38:26;1.95;;;0.70;;
21721;SDS011;11023;48.274;7.794;2023-04-24T01:40:52;0.82;;;0.60;;
21721;SDS011;11023;48.274;7.794;2023-04-24T01:43:18;2.67;;;0.70;;
21721;SDS011;11023;48.274;7.794;2023-04-24T01:45:44;0.50;;;0.40;;
21721;SDS011;11023;48.274;7.794;2023-04-24T01:48:11;2.67;;;0.60;;
21721;SDS011;11023;48.274;7.794;2023-04-24T01:50:38;1.80;;;0.68;;
21721;SDS011;11023;48.274;7.794;2023-04-24T01:53:04;1.85;;;0.60;;
21721;SDS011;11023;48.274;7.794;2023-04-24T01:55:30;1.17;;;0.73;;
21721;SDS011;11023;48.274;7.794;2023-04-24T01:57:56;1.08;;;0.50;;
21721;SDS011;11023;48.274;7.794;2023-04-24T02:00:24;1.48;;;0.60;;
21721;SDS011;11023;48.274;7.794;2023-04-24T02:02:50;2.33;;;0.70;;
21721;SDS011;11023;48.274;7.794;2023-04-24T02:05:17;0.85;;;0.52;;
21721;SDS011;11023;48.274;7.794;2023-04-24T02:07:42;1.00;;;0.50;;
21721;SDS011;11023;48.274;7.794;2023-04-24T02:10:08;1.20;;;0.60;;
21721;SDS011;11023;48.274;7.794;2023-04-24T02:12:35;1.25;;;0.63;;
21721;SDS011;11023;48.274;7.794;2023-04-24T02:15:00;2.50;;;0.70;;
21721;SDS011;11023;48.274;7.794;2023-04-24T02:17:27;2.28;;;0.60;;
21721;SDS011;11023;48.274;7.794;2023-04-24T02:19:52;0.70;;;0.55;;
21721;SDS011;11023;48.274;7.794;2023-04-24T02:22:18;3.67;;;0.80;;
21721;SDS011;11023;48.274;7.794;2023-04-24T02:24:44;2.05;;;0.63;;
21721;SDS011;11023;48.274;7.794;2023-04-24T02:27:10;1.45;;;0.60;;
21721;SDS011;11023;48.274;7.794;2023-04-24T02:29:36;1.70;;;0.60;;
21721;SDS011;11023;48.274;7.794;2023-04-24T02:32:02;1.42;;;0.52;;
21721;SDS011;11023;48.274;7.794;2023-04-24T02:34:27;3.47;;;0.80;;
21721;SDS011;11023;48.274;7.794;2023-04-24T02:36:53;2.28;;;0.50;;
21721;SDS011;11023;48.274;7.794;2023-04-24T02:39:19;2.25;;;0.65;;
21721;SDS011;11023;48.274;7.794;2023-04-24T02:41:45;2.72;;;0.70;;
21721;SDS011;11023;48.274;7.794;2023-04-24T02:44:11;2.08;;;0.60;;
21721;SDS011;11023;48.274;7.794;2023-04-24T02:46:37;1.05;;;0.60;;
21721;SDS011;11023;48.274;7.794;2023-04-24T02:49:03;3.72;;;0.95;;
21721;SDS011;11023;48.274;7.794;2023-04-24T02:51:28;1.52;;;0.70;;
21721;SDS011;11023;48.274;7.794;2023-04-24T02:53:54;2.63;;;0.70;;
21721;SDS011;11023;48.274;7.794;2023-04-24T02:56:20;3.13;;;0.80;;
21721;SDS011;11023;48.274;7.794;2023-04-24T02:58:46;3.55;;;0.93;;
21721;SDS011;11023;48.274;7.794;2023-04-24T03:01:11;4.85;;;1.30;;
21721;SDS011;11023;48.274;7.794;2023-04-24T03:03:37;5.18;;;1.27;;
21721;SDS011;11023;48.274;7.794;2023-04-24T03:06:03;5.63;;;1.40;;
21721;SDS011;11023;48.274;7.794;2023-04-24T03:08:31;7.22;;;1.30;;
21721;SDS011;11023;48.274;7.794;2023-04-24T03:10:57;3.75;;;1.13;;
21721;SDS011;11023;48.274;7.794;2023-04-24T03:13:22;3.47;;;1.10;;
21721;SDS011;11023;48.274;7.794;2023-04-24T03:15:48;4.15;;;0.95;;
21721;SDS011;11023;48.274;7.794;2023-04-24T03:18:13;2.78;;;1.00;;
21721;SDS011;11023;48.274;7.794;2023-04-24T03:20:39;2.15;;;1.00;;
21721;SDS011;11023;48.274;7.794;2023-04-24T03:23:05;6.50;;;1.05;;
21721;SDS011;11023;48.274;7.794;2023-04-24T03:25:30;3.20;;;1.15;;
21721;SDS011;11023;48.274;7.794;2023-04-24T03:27:56;1.10;;;0.90;;
21721;SDS011;11023;48.274;7.794;2023-04-24T03:30:22;3.78;;;0.90;;
21721;SDS011;11023;48.274;7.794;2023-04-24T03:32:47;2.67;;;0.80;;
21721;SDS011;11023;48.274;7.794;2023-04-24T03:35:13;3.97;;;0.90;;
21721;SDS011;11023;48.274;7.794;2023-04-24T03:37:39;2.85;;;1.00;;
21721;SDS011;11023;48.274;7.794;2023-04-24T03:40:04;1.33;;;0.93;;
21721;SDS011;11023;48.274;7.794;2023-04-24T03:42:32;1.77;;;0.90;;
21721;SDS011;11023;48.274;7.794;2023-04-24T03:44:57;2.47;;;0.90;;
21721;SDS011;11023;48.274;7.794;2023-04-24T03:47:23;1.92;;;0.82;;
21721;SDS011;11023;48.274;7.794;2023-04-24T03:49:48;2.53;;;0.90;;
21721;SDS011;11023;48.274;7.794;2023-04-24T03:52:15;1.55;;;1.00;;
21721;SDS011;11023;48.274;7.794;2023-04-24T03:54:40;3.30;;;1.40;;
21721;SDS011;11023;48.274;7.794;2023-04-24T03:57:06;2.60;;;1.23;;
21721;SDS011;11023;48.274;7.794;2023-04-24T03:59:32;3.10;;;1.13;;
21721;SDS011;11023;48.274;7.794;2023-04-24T04:01:57;4.13;;;1.35;;
21721;SDS011;11023;48.274;7.794;2023-04-24T04:04:23;1.17;;;1.08;;
21721;SDS011;11023;48.274;7.794;2023-04-24T04:06:48;3.47;;;1.50;;
21721;SDS011;11023;48.274;7.794;2023-04-24T04:09:14;1.63;;;1.25;;
21721;SDS011;11023;48.274;7.794;2023-04-24T04:11:40;4.43;;;1.67;;
21721;SDS011;11023;48.274;7.794;2023-04-24T04:14:06;4.65;;;1.60;;
21721;SDS011;11023;48.274;7.794;2023-04-24T04:16:31;1.40;;;1.15;;
21721;SDS011;11023;48.274;7.794;2023-04-24T04:18:57;1.33;;;1.20;;
21721;SDS011;11023;48.274;7.794;2023-04-24T04:21:23;2.67;;;1.40;;
21721;SDS011;11023;48.274;7.794;2023-04-24T04:23:49;3.90;;;1.40;;
21721;SDS011;11023;48.274;7.794;2023-04-24T04:26:14;2.13;;;1.20;;
21721;SDS011;11023;48.274;7.794;2023-04-24T04:28:40;2.35;;;1.40;;
21721;SDS011;11023;48.274;7.794;2023-04-24T04:31:06;1.73;;;1.42;;
21721;SDS011;11023;48.274;7.794;2023-04-24T04:33:32;1.75;;;1.30;;
21721;SDS011;11023;48.274;7.794;2023-04-24T04:35:58;2.00;;;1.17;;
21721;SDS011;11023;48.274;7.794;2023-04-24T04:38:25;1.55;;;1.30;;
21721;SDS011;11023;48.274;7.794;2023-04-24T04:40:54;1.85;;;1.15;;
21721;SDS011;11023;48.274;7.794;2023-04-24T04:43:22;3.05;;;1.42;;
21721;SDS011;11023;48.274;7.794;2023-04-24T04:45:49;2.25;;;1.50;;
21721;SDS011;11023;48.274;7.794;2023-04-24T04:48:16;3.55;;;1.65;;
21721;SDS011;11023;48.274;7.794;2023-04-24T04:50:42;1.98;;;1.60;;
21721;SDS011;11023;48.274;7.794;2023-04-24T04:53:08;2.25;;;1.40;;
21721;SDS011;11023;48.274;7.794;2023-04-24T04:55:34;1.73;;;1.58;;
21721;SDS011;11023;48.274;7.794;2023-04-24T04:57:59;2.58;;;1.50;;
21721;SDS011;11023;48.274;7.794;2023-04-24T05:00:25;3.03;;;1.50;;
21721;SDS011;11023;48.274;7.794;2023-04-24T05:02:52;3.30;;;1.67;;
21721;SDS011;11023;48.274;7.794;2023-04-24T05:05:18;1.80;;;1.58;;
21721;SDS011;11023;48.274;7.794;2023-04-24T05:07:43;2.25;;;1.90;;
21721;SDS011;11023;48.274;7.794;2023-04-24T05:10:09;2.67;;;1.70;;
21721;SDS011;11023;48.274;7.794;2023-04-24T05:12:35;2.10;;;1.90;;
21721;SDS011;11023;48.274;7.794;2023-04-24T05:15:01;2.05;;;1.58;;
21721;SDS011;11023;48.274;7.794;2023-04-24T05:17:27;3.25;;;1.77;;
21721;SDS011;11023;48.274;7.794;2023-04-24T05:19:53;2.45;;;1.85;;
21721;SDS011;11023;48.274;7.794;2023-04-24T05:22:19;3.97;;;2.08;;
21721;SDS011;11023;48.274;7.794;2023-04-24T05:24:46;3.33;;;2.00;;
21721;SDS011;11023;48.274;7.794;2023-04-24T05:27:12;3.65;;;2.10;;
21721;SDS011;11023;48.274;7.794;2023-04-24T05:29:38;3.92;;;1.90;;
21721;SDS011;11023;48.274;7.794;2023-04-24T05:32:03;2.63;;;1.85;;
21721;SDS011;11023;48.274;7.794;2023-04-24T05:34:29;2.85;;;2.00;;
21721;SDS011;11023;48.274;7.794;2023-04-24T05:36:55;2.38;;;1.83;;
21721;SDS011;11023;48.274;7.794;2023-04-24T05:39:20;2.65;;;1.98;;
21721;SDS011;11023;48.274;7.794;2023-04-24T05:41:46;3.58;;;1.70;;
21721;SDS011;11023;48.274;7.794;2023-04-24T05:44:12;3.28;;;1.70;;
21721;SDS011;11023;48.274;7.794;2023-04-24T05:46:37;3.42;;;1.90;;
21721;SDS011;11023;48.274;7.794;2023-04-24T05:49:03;3.03;;;2.20;;
21721;SDS011;11023;48.274;7.794;2023-04-24T05:51:29;5.55;;;3.50;;
21721;SDS011;11023;48.274;7.794;2023-04-24T05:53:55;3.13;;;2.78;;
21721;SDS011;11023;48.274;7.794;2023-04-24T05:56:20;5.50;;;2.80;;
21721;SDS011;11023;48.274;7.794;2023-04-24T05:58:46;3.38;;;2.50;;
21721;SDS011;11023;48.274;7.794;2023-04-24T06:01:12;3.28;;;2.25;;
21721;SDS011;11023;48.274;7.794;2023-04-24T06:03:41;3.40;;;2.72;;
21721;SDS011;11023;48.274;7.794;2023-04-24T06:06:07;4.15;;;2.22;;
21721;SDS011;11023;48.274;7.794;2023-04-24T06:08:34;4.20;;;2.25;;
21721;SDS011;11023;48.274;7.794;2023-04-24T06:11:00;4.75;;;2.42;;
21721;SDS011;11023;48.274;7.794;2023-04-24T06:13:26;3.92;;;2.03;;
21721;SDS011;11023;48.274;7.794;2023-04-24T06:15:52;3.33;;;2.40;;
21721;SDS011;11023;48.274;7.794;2023-04-24T06:18:18;2.63;;;2.20;;
21721;SDS011;11023;48.274;7.794;2023-04-24T06:20:44;4.95;;;2.40;;
21721;SDS011;11023;48.274;7.794;2023-04-24T06:23:10;5.25;;;2.40;;
21721;SDS011;11023;48.274;7.794;2023-04-24T06:25:36;2.17;;;1.80;;
21721;SDS011;11023;48.274;7.794;2023-04-24T06:28:03;6.55;;;2.50;;
21721;SDS011;11023;48.274;7.794;2023-04-24T06:30:28;4.30;;;2.50;;
21721;SDS011;11023;48.274;7.794;2023-04-24T06:32:54;2.63;;;2.08;;
21721;SDS011;11023;48.274;7.794;2023-04-24T06:35:20;2.60;;;2.08;;
21721;SDS011;11023;48.274;7.794;2023-04-24T06:37:46;3.70;;;2.22;;
21721;SDS011;11023;48.274;7.794;2023-04-24T06:40:11;3.95;;;1.95;;
21721;SDS011;11023;48.274;7.794;2023-04-24T06:42:37;3.13;;;1.98;;
21721;SDS011;11023;48.274;7.794;2023-04-24T06:45:03;4.93;;;2.08;;
21721;SDS011;11023;48.274;7.794;2023-04-24T06:47:30;3.03;;;1.90;;
21721;SDS011;11023;48.274;7.794;2023-04-24T06:49:56;2.58;;;1.90;;
21721;SDS011;11023;48.274;7.794;2023-04-24T06:52:22;2.50;;;1.95;;
21721;SDS011;11023;48.274;7.794;2023-04-24T06:54:47;3.55;;;2.03;;
21721;SDS011;11023;48.274;7.794;2023-04-24T06:57:13;2.58;;;1.92;;
21721;SDS011;11023;48.274;7.794;2023-04-24T06:59:40;4.90;;;2.20;;
21721;SDS011;11023;48.274;7.794;2023-04-24T07:02:06;5.70;;;2.25;;
21721;SDS011;11023;48.274;7.794;2023-04-24T07:04:32;4.55;;;2.25;;
21721;SDS011;11023;48.274;7.794;2023-04-24T07:06:57;2.47;;;1.75;;
21721;SDS011;11023;48.274;7.794;2023-04-24T07:09:24;2.70;;;2.08;;
21721;SDS011;11023;48.274;7.794;2023-04-24T07:11:51;3.45;;;1.92;;
21721;SDS011;11023;48.274;7.794;2023-04-24T07:14:16;2.78;;;1.70;;
21721;SDS011;11023;48.274;7.794;2023-04-24T07:16:42;2.15;;;1.70;;
21721;SDS011;11023;48.274;7.794;2023-04-24T07:19:08;2.20;;;1.33;;
21721;SDS011;11023;48.274;7.794;2023-04-24T07:21:34;1.70;;;1.30;;
21721;SDS011;11023;48.274;7.794;2023-04-24T07:24:00;4.22;;;1.52;;
21721;SDS011;11023;48.274;7.794;2023-04-24T07:26:26;2.53;;;1.50;;
21721;SDS011;11023;48.274;7.794;2023-04-24T07:28:53;4.10;;;1.67;;
21721;SDS011;11023;48.274;7.794;2023-04-24T07:31:19;2.22;;;1.15;;
21721;SDS011;11023;48.274;7.794;2023-04-24T07:33:46;4.07;;;1.58;;
21721;SDS011;11023;48.274;7.794;2023-04-24T07:36:11;4.32;;;1.75;;
21721;SDS011;11023;48.274;7.794;2023-04-24T07:38:41;2.55;;;1.40;;
21721;SDS011;11023;48.274;7.794;2023-04-24T07:41:07;3.08;;;1.63;;
21721;SDS011;11023;48.274;7.794;2023-04-24T07:43:34;5.13;;;1.45;;
21721;SDS011;11023;48.274;7.794;2023-04-24T07:45:59;2.00;;;1.45;;
21721;SDS011;11023;48.274;7.794;2023-04-24T07:48:25;2.72;;;1.60;;
21721;SDS011;11023;48.274;7.794;2023-04-24T07:50:51;4.20;;;1.85;;
21721;SDS011;11023;48.274;7.794;2023-04-24T07:53:17;3.95;;;1.48;;
21721;SDS011;11023;48.274;7.794;2023-04-24T07:55:43;2.88;;;1.42;;
21721;SDS011;11023;48.274;7.794;2023-04-24T07:58:09;4.05;;;1.85;;
21721;SDS011;11023;48.274;7.794;2023-04-24T08:00:34;3.25;;;1.70;;
21721;SDS011;11023;48.274;7.794;2023-04-24T08:03:00;3.67;;;1.40;;
21721;SDS011;11023;48.274;7.794;2023-04-24T08:05:26;2.75;;;1.42;;
21721;SDS011;11023;48.274;7.794;2023-04-24T08:07:53;3.88;;;1.83;;
21721;SDS011;11023;48.274;7.794;2023-04-24T08:10:20;2.35;;;1.30;;
21721;SDS011;11023;48.274;7.794;2023-04-24T08:12:46;2.88;;;1.50;;
21721;SDS011;11023;48.274;7.794;2023-04-24T08:15:12;2.38;;;1.30;;
21721;SDS011;11023;48.274;7.794;2023-04-24T08:17:38;4.75;;;1.70;;
21721;SDS011;11023;48.274;7.794;2023-04-24T08:20:04;3.30;;;1.33;;
21721;SDS011;11023;48.274;7.794;2023-04-24T08:22:30;3.67;;;1.52;;
21721;SDS011;11023;48.274;7.794;2023-04-24T08:24:56;2.65;;;1.23;;
21721;SDS011;11023;48.274;7.794;2023-04-24T08:27:25;1.70;;;1.15;;
21721;SDS011;11023;48.274;7.794;2023-04-24T08:29:52;4.60;;;1.25;;
21721;SDS011;11023;48.274;7.794;2023-04-24T08:32:18;3.75;;;1.10;;
21721;SDS011;11023;48.274;7.794;2023-04-24T08:34:44;3.30;;;1.35;;
21721;SDS011;11023;48.274;7.794;2023-04-24T08:37:10;3.35;;;1.15;;
21721;SDS011;11023;48.274;7.794;2023-04-24T08:39:36;1.77;;;0.90;;
21721;SDS011;11023;48.274;7.794;2023-04-24T08:42:02;2.95;;;0.90;;
21721;SDS011;11023;48.274;7.794;2023-04-24T08:44:32;4.78;;;0.80;;
21721;SDS011;11023;48.274;7.794;2023-04-24T08:46:59;0.85;;;0.70;;
21721;SDS011;11023;48.274;7.794;2023-04-24T08:49:25;2.33;;;0.90;;
21721;SDS011;11023;48.274;7.794;2023-04-24T08:51:53;1.67;;;0.70;;
21721;SDS011;11023;48.274;7.794;2023-04-24T08:54:18;3.40;;;0.65;;
21721;SDS011;11023;48.274;7.794;2023-04-24T08:56:44;3.17;;;0.70;;
21721;SDS011;11023;48.274;7.794;2023-04-24T08:59:12;2.00;;;0.73;;
21721;SDS011;11023;48.274;7.794;2023-04-24T09:01:40;0.77;;;0.60;;
21721;SDS011;11023;48.274;7.794;2023-04-24T09:04:06;1.08;;;0.60;;
21721;SDS011;11023;48.274;7.794;2023-04-24T09:06:34;2.03;;;0.80;;
21721;SDS011;11023;48.274;7.794;2023-04-24T09:09:00;1.02;;;0.70;;
21721;SDS011;11023;48.274;7.794;2023-04-24T09:11:29;2.58;;;1.00;;
21721;SDS011;11023;48.274;7.794;2023-04-24T09:13:56;0.75;;;0.57;;
21721;SDS011;11023;48.274;7.794;2023-04-24T09:16:22;1.30;;;0.90;;
21721;SDS011;11023;48.274;7.794;2023-04-24T09:18:51;2.28;;;0.85;;
21721;SDS011;11023;48.274;7.794;2023-04-24T09:21:17;3.10;;;0.90;;
21721;SDS011;11023;48.274;7.794;2023-04-24T09:23:46;2.53;;;0.65;;
21721;SDS011;11023;48.274;7.794;2023-04-24T09:26:11;2.33;;;0.80;;
21721;SDS011;11023;48.274;7.794;2023-04-24T09:28:39;2.58;;;0.77;;
21721;SDS011;11023;48.274;7.794;2023-04-24T09:31:08;3.22;;;0.70;;
21721;SDS011;11023;48.274;7.794;2023-04-24T09:33:35;2.00;;;0.80;;
21721;SDS011;11023;48.274;7.794;2023-04-24T09:36:01;1.38;;;0.70;;
21721;SDS011;11023;48.274;7.794;2023-04-24T09:38:34;1.38;;;0.85;;
21721;SDS011;11023;48.274;7.794;2023-04-24T09:43:28;2.83;;;0.70;;
21721;SDS011;11023;48.274;7.794;2023-04-24T09:45:58;3.28;;;0.82;;
21721;SDS011;11023;48.274;7.794;2023-04-24T09:48:31;4.28;;;0.82;;
21721;SDS011;11023;48.274;7.794;2023-04-24T09:50:57;2.22;;;0.60;;
21721;SDS011;11023;48.274;7.794;2023-04-24T09:53:26;2.08;;;0.70;;
21721;SDS011;11023;48.274;7.794;2023-04-24T09:55:53;1.25;;;0.68;;
21721;SDS011;11023;48.274;7.794;2023-04-24T09:58:24;1.13;;;0.70;;
21721;SDS011;11023;48.274;7.794;2023-04-24T10:00:54;1.52;;;0.63;;
21721;SDS011;11023;48.274;7.794;2023-04-24T10:03:20;0.80;;;0.68;;
21721;SDS011;11023;48.274;7.794;2023-04-24T10:05:46;2.17;;;0.80;;
21721;SDS011;11023;48.274;7.794;2023-04-24T10:08:12;2.03;;;0.85;;
21721;SDS011;11023;48.274;7.794;2023-04-24T10:10:39;2.03;;;0.60;;
21721;SDS011;11023;48.274;7.794;2023-04-24T10:13:10;1.88;;;0.70;;
21721;SDS011;11023;48.274;7.794;2023-04-24T10:15:37;2.45;;;0.55;;
21721;SDS011;11023;48.274;7.794;2023-04-24T10:18:07;1.08;;;0.68;;
21721;SDS011;11023;48.274;7.794;2023-04-24T10:20:35;1.58;;;0.80;;
21721;SDS011;11023;48.274;7.794;2023-04-24T10:23:02;0.90;;;0.63;;
21721;SDS011;11023;48.274;7.794;2023-04-24T10:25:29;1.23;;;0.70;;
21721;SDS011;11023;48.274;7.794;2023-04-24T10:27:57;2.95;;;0.80;;
21721;SDS011;11023;48.274;7.794;2023-04-24T10:30:28;1.42;;;0.70;;
21721;SDS011;11023;48.274;7.794;2023-04-24T10:32:55;2.92;;;0.80;;
21721;SDS011;11023;48.274;7.794;2023-04-24T10:35:21;0.90;;;0.70;;
21721;SDS011;11023;48.274;7.794;2023-04-24T10:37:52;2.58;;;0.77;;
21721;SDS011;11023;48.274;7.794;2023-04-24T10:40:26;1.38;;;1.00;;
21721;SDS011;11023;48.274;7.794;2023-04-24T10:42:54;0.90;;;0.70;;
21721;SDS011;11023;48.274;7.794;2023-04-24T10:45:22;2.70;;;1.23;;
21721;SDS011;11023;48.274;7.794;2023-04-24T10:47:58;2.90;;;0.90;;
21721;SDS011;11023;48.274;7.794;2023-04-24T10:50:29;3.42;;;1.30;;
21721;SDS011;11023;48.274;7.794;2023-04-24T10:53:11;3.00;;;1.02;;
21721;SDS011;11023;48.274;7.794;2023-04-24T10:55:43;4.10;;;1.10;;
21721;SDS011;11023;48.274;7.794;2023-04-24T10:58:14;3.42;;;1.05;;
21721;SDS011;11023;48.274;7.794;2023-04-24T11:00:41;1.98;;;1.10;;
21721;SDS011;11023;48.274;7.794;2023-04-24T11:03:25;2.70;;;1.00;;
21721;SDS011;11023;48.274;7.794;2023-04-24T11:05:57;1.38;;;0.90;;
21721;SDS011;11023;48.274;7.794;2023-04-24T11:08:46;1.42;;;1.00;;
21721;SDS011;11023;48.274;7.794;2023-04-24T11:11:15;1.52;;;0.80;;
21721;SDS011;11023;48.274;7.794;2023-04-24T11:18:50;2.28;;;0.90;;
21721;SDS011;11023;48.274;7.794;2023-04-24T11:21:19;1.33;;;0.90;;
21721;SDS011;11023;48.274;7.794;2023-04-24T11:23:45;1.40;;;0.80;;
21721;SDS011;11023;48.274;7.794;2023-04-24T11:26:18;2.55;;;0.80;;
21721;SDS011;11023;48.274;7.794;2023-04-24T11:28:48;2.45;;;0.80;;
21721;SDS011;11023;48.274;7.794;2023-04-24T11:34:05;1.42;;;0.70;;
21721;SDS011;11023;48.274;7.794;2023-04-24T11:36:39;3.05;;;0.70;;
21721;SDS011;11023;48.274;7.794;2023-04-24T11:39:08;4.60;;;1.00;;
21721;SDS011;11023;48.274;7.794;2023-04-24T11:41:33;2.05;;;0.93;;
21721;SDS011;11023;48.274;7.794;2023-04-24T11:44:00;2.17;;;0.68;;
21721;SDS011;11023;48.274;7.794;2023-04-24T11:46:27;3.55;;;1.50;;
21721;SDS011;11023;48.274;7.794;2023-04-24T11:48:55;2.75;;;0.80;;
21721;SDS011;11023;48.274;7.794;2023-04-24T11:51:22;1.73;;;0.70;;
21721;SDS011;11023;48.274;7.794;2023-04-24T11:53:49;2.13;;;0.80;;
21721;SDS011;11023;48.274;7.794;2023-04-24T11:56:17;2.17;;;0.80;;
21721;SDS011;11023;48.274;7.794;2023-04-24T11:58:44;1.55;;;0.70;;
21721;SDS011;11023;48.274;7.794;2023-04-24T12:01:10;1.42;;;0.80;;
21721;SDS011;11023;48.274;7.794;2023-04-24T12:03:35;1.77;;;0.90;;
21721;SDS011;11023;48.274;7.794;2023-04-24T12:06:04;1.15;;;0.70;;
21721;SDS011;11023;48.274;7.794;2023-04-24T12:08:34;1.15;;;1.00;;
21721;SDS011;11023;48.274;7.794;2023-04-24T12:11:00;2.67;;;0.90;;
21721;SDS011;11023;48.274;7.794;2023-04-24T12:13:27;1.48;;;0.70;;
21721;SDS011;11023;48.274;7.794;2023-04-24T12:15:52;1.50;;;0.77;;
21721;SDS011;11023;48.274;7.794;2023-04-24T12:18:18;1.73;;;1.17;;
21721;SDS011;11023;48.274;7.794;2023-04-24T12:20:47;1.38;;;1.10;;
21721;SDS011;11023;48.274;7.794;2023-04-24T12:23:13;1.10;;;0.70;;
21721;SDS011;11023;48.274;7.794;2023-04-24T12:25:39;1.85;;;0.80;;
21721;SDS011;11023;48.274;7.794;2023-04-24T12:30:33;0.90;;;0.80;;
21721;SDS011;11023;48.274;7.794;2023-04-24T12:33:01;1.13;;;0.70;;
21721;SDS011;11023;48.274;7.794;2023-04-24T12:35:28;1.75;;;0.85;;
21721;SDS011;11023;48.274;7.794;2023-04-24T12:38:05;1.35;;;0.70;;
21721;SDS011;11023;48.274;7.794;2023-04-24T12:40:34;0.98;;;0.68;;
21721;SDS011;11023;48.274;7.794;2023-04-24T12:43:00;2.35;;;0.80;;
21721;SDS011;11023;48.274;7.794;2023-04-24T12:45:26;2.13;;;1.10;;
21721;SDS011;11023;48.274;7.794;2023-04-24T12:47:53;4.70;;;0.90;;
21721;SDS011;11023;48.274;7.794;2023-04-24T12:50:19;2.20;;;1.10;;
21721;SDS011;11023;48.274;7.794;2023-04-24T12:52:44;4.13;;;1.20;;
21721;SDS011;11023;48.274;7.794;2023-04-24T12:55:10;1.55;;;1.20;;
21721;SDS011;11023;48.274;7.794;2023-04-24T12:57:37;3.58;;;1.30;;
21721;SDS011;11023;48.274;7.794;2023-04-24T13:00:05;2.30;;;1.10;;
21721;SDS011;11023;48.274;7.794;2023-04-24T13:02:33;6.88;;;1.23;;
21721;SDS011;11023;48.274;7.794;2023-04-24T13:04:59;5.40;;;1.30;;
21721;SDS011;11023;48.274;7.794;2023-04-24T13:07:25;2.00;;;1.35;;
21721;SDS011;11023;48.274;7.794;2023-04-24T13:09:51;1.70;;;1.33;;
21721;SDS011;11023;48.274;7.794;2023-04-24T13:12:18;2.78;;;1.23;;
21721;SDS011;11023;48.274;7.794;2023-04-24T13:14:44;2.65;;;1.38;;
21721;SDS011;11023;48.274;7.794;2023-04-24T13:17:10;2.63;;;1.33;;
21721;SDS011;11023;48.274;7.794;2023-04-24T13:19:38;1.70;;;1.10;;
21721;SDS011;11023;48.274;7.794;2023-04-24T13:22:05;1.42;;;1.00;;
21721;SDS011;11023;48.274;7.794;2023-04-24T13:24:31;4.35;;;1.30;;
21721;SDS011;11023;48.274;7.794;2023-04-24T13:26:58;2.45;;;1.33;;
21721;SDS011;11023;48.274;7.794;2023-04-24T13:29:24;1.55;;;1.30;;
21721;SDS011;11023;48.274;7.794;2023-04-24T13:31:50;3.58;;;1.60;;
21721;SDS011;11023;48.274;7.794;2023-04-24T13:34:17;2.72;;;1.33;;
21721;SDS011;11023;48.274;7.794;2023-04-24T13:36:43;2.10;;;1.20;;
21721;SDS011;11023;48.274;7.794;2023-04-24T13:39:09;1.83;;;1.20;;
21721;SDS011;11023;48.274;7.794;2023-04-24T13:41:35;3.83;;;1.20;;
21721;SDS011;11023;48.274;7.794;2023-04-24T13:44:02;3.70;;;1.00;;
21721;SDS011;11023;48.274;7.794;2023-04-24T13:46:28;1.75;;;0.98;;
21721;SDS011;11023;48.274;7.794;2023-04-24T13:48:54;2.35;;;1.00;;
21721;SDS011;11023;48.274;7.794;2023-04-24T13:51:20;1.42;;;0.80;;
21721;SDS011;11023;48.274;7.794;2023-04-24T13:53:45;1.20;;;1.00;;
21721;SDS011;11023;48.274;7.794;2023-04-24T13:56:11;2.45;;;1.17;;
21721;SDS011;11023;48.274;7.794;2023-04-24T13:58:38;0.98;;;0.90;;
21721;SDS011;11023;48.274;7.794;2023-04-24T14:01:04;1.05;;;0.90;;
21721;SDS011;11023;48.274;7.794;2023-04-24T14:03:30;3.35;;;1.00;;
21721;SDS011;11023;48.274;7.794;2023-04-24T14:05:56;1.48;;;1.13;;
21721;SDS011;11023;48.274;7.794;2023-04-24T14:08:22;1.55;;;1.17;;
21721;SDS011;11023;48.274;7.794;2023-04-24T14:10:48;3.42;;;1.10;;
21721;SDS011;11023;48.274;7.794;2023-04-24T14:13:15;1.60;;;1.13;;
21721;SDS011;11023;48.274;7.794;2023-04-24T14:15:41;2.00;;;1.13;;
21721;SDS011;11023;48.274;7.794;2023-04-24T14:18:07;1.98;;;1.05;;
21721;SDS011;11023;48.274;7.794;2023-04-24T14:20:32;2.50;;;1.00;;
21721;SDS011;11023;48.274;7.794;2023-04-24T14:22:58;1.75;;;0.90;;
21721;SDS011;11023;48.274;7.794;2023-04-24T14:25:26;1.55;;;1.17;;
21721;SDS011;11023;48.274;7.794;2023-04-24T14:27:52;1.90;;;1.10;;
21721;SDS011;11023;48.274;7.794;2023-04-24T14:30:18;2.05;;;1.05;;
21721;SDS011;11023;48.274;7.794;2023-04-24T14:32:44;2.38;;;1.30;;
21721;SDS011;11023;48.274;7.794;2023-04-24T14:35:10;2.15;;;1.08;;
21721;SDS011;11023;48.274;7.794;2023-04-24T14:37:35;2.58;;;1.13;;
21721;SDS011;11023;48.274;7.794;2023-04-24T14:40:02;2.78;;;1.23;;
21721;SDS011;11023;48.274;7.794;2023-04-24T14:42:31;4.28;;;1.02;;
21721;SDS011;11023;48.274;7.794;2023-04-24T14:44:57;1.02;;;0.80;;
21721;SDS011;11023;48.274;7.794;2023-04-24T14:47:22;1.80;;;0.80;;
21721;SDS011;11023;48.274;7.794;2023-04-24T14:49:48;1.98;;;1.10;;
21721;SDS011;11023;48.274;7.794;2023-04-24T14:52:14;2.38;;;1.08;;
21721;SDS011;11023;48.274;7.794;2023-04-24T14:54:40;1.88;;;1.08;;
21721;SDS011;11023;48.274;7.794;2023-04-24T14:57:06;1.77;;;0.90;;